sensor_id;sensor_type;location;lat;lon;timestamp;pressure;altitude;pressure_sealevel;temperature;humidity
12801;BME280;6464;42.494;27.470;2023-04-05T04:07:49;98855.63;;;2.80;100.00
12801;BME280;6464;42.494;27.470;2023-04-05T04:10:21;98942.41;;;3.78;100.00
12801;BME280;6464;42.494;27.470;2023-04-05T04:12:55;98925.63;;;3.47;100.00
12801;BME280;6464;42.494;27.470;2023-04-05T04:18:21;98928.47;;;3.34;100.00
12801;BME280;6464;42.494;27.470;2023-04-05T04:23:42;98925.03;;;3.31;100.00
12801;BME280;6464;42.494;27.470;2023-04-05T04:26:26;99036.88;;;3.93;100.00
12801;BME280;6464;42.494;27.470;2023-04-05T04:29:02;99192.56;;;4.83;100.00
12801;BME280;6464;42.494;27.470;2023-04-05T04:31:35;99094.88;;;4.07;100.00
12801;BME280;6464;42.494;27.470;2023-04-05T04:40:17;99185.81;;;4.25;100.00
12801;BME280;6464;42.494;27.470;2023-04-05T04:42:58;99170.25;;;4.22;100.00
12801;BME280;6464;42.494;27.470;2023-04-05T04:53:41;99348.69;;;4.69;100.00
12801;BME280;6464;42.494;27.470;2023-04-05T04:56:13;99233.09;;;4.08;100.00
12801;BME280;6464;42.494;27.470;2023-04-05T04:58:41;99164.44;;;4.05;100.00
12801;BME280;6464;42.494;27.470;2023-04-05T05:01:09;99329.25;;;4.85;100.00
12801;BME280;6464;42.494;27.470;2023-04-05T05:03:39;99235.88;;;3.98;100.00
12801;BME280;6464;42.494;27.470;2023-04-05T05:06:26;99113.06;;;3.59;100.00
12801;BME280;6464;42.494;27.470;2023-04-05T05:09:22;99251.09;;;4.24;100.00
12801;BME280;6464;42.494;27.470;2023-04-05T05:12:24;99156.72;;;3.43;100.00
12801;BME280;6464;42.494;27.470;2023-04-05T05:15:30;99151.38;;;3.54;100.00
12801;BME280;6464;42.494;27.470;2023-04-05T05:17:58;99267.75;;;4.15;100.00
12801;BME280;6464;42.494;27.470;2023-04-05T05:20:31;99303.69;;;3.96;100.00
12801;BME280;6464;42.494;27.470;2023-04-05T05:23:20;99275.94;;;3.91;100.00
12801;BME280;6464;42.494;27.470;2023-04-05T05:25:56;99347.91;;;4.62;100.00
12801;BME280;6464;42.494;27.470;2023-04-05T05:28:28;99426.22;;;4.64;100.00
12801;BME280;6464;42.494;27.470;2023-04-05T05:31:03;99164.94;;;3.16;100.00
12801;BME280;6464;42.494;27.470;2023-04-05T05:33:55;99350.59;;;3.99;100.00
12801;BME280;6464;42.494;27.470;2023-04-05T05:39:48;99284.97;;;4.79;100.00
12801;BME280;6464;42.494;27.470;2023-04-05T05:42:21;99402.00;;;5.08;100.00
12801;BME280;6464;42.494;27.470;2023-04-05T05:44:55;99355.53;;;4.76;100.00
12801;BME280;6464;42.494;27.470;2023-04-05T05:47:35;99384.22;;;4.78;100.00
12801;BME280;6464;42.494;27.470;2023-04-05T05:50:31;99324.09;;;4.28;100.00
12801;BME280;6464;42.494;27.470;2023-04-05T05:53:04;99504.66;;;5.15;100.00
12801;BME280;6464;42.494;27.470;2023-04-05T05:55:48;99393.53;;;4.38;100.00
12801;BME280;6464;42.494;27.470;2023-04-05T05:58:25;99579.84;;;5.55;100.00
12801;BME280;6464;42.494;27.470;2023-04-05T06:01:17;99426.66;;;4.33;100.00
12801;BME280;6464;42.494;27.470;2023-04-05T06:06:36;99584.31;;;6.01;100.00
12801;BME280;6464;42.494;27.470;2023-04-05T06:11:55;99571.41;;;5.90;100.00
12801;BME280;6464;42.494;27.470;2023-04-05T06:14:30;99469.72;;;5.21;100.00
12801;BME280;6464;42.494;27.470;2023-04-05T06:17:03;99531.34;;;6.34;100.00
12801;BME280;6464;42.494;27.470;2023-04-05T06:19:38;99673.25;;;6.98;100.00
12801;BME280;6464;42.494;27.470;2023-04-05T06:22:23;99592.56;;;5.75;100.00
12801;BME280;6464;42.494;27.470;2023-04-05T06:25:25;99610.78;;;5.82;100.00
12801;BME280;6464;42.494;27.470;2023-04-05T06:35:49;99549.88;;;5.20;100.00
12801;BME280;6464;42.494;27.470;2023-04-05T06:38:21;99657.41;;;6.11;100.00
12801;BME280;6464;42.494;27.470;2023-04-05T06:40:55;99654.69;;;6.19;100.00
12801;BME280;6464;42.494;27.470;2023-04-05T06:43:29;99556.81;;;5.77;100.00
12801;BME280;6464;42.494;27.470;2023-04-05T06:46:24;99633.81;;;6.61;100.00
12801;BME280;6464;42.494;27.470;2023-04-05T06:49:17;99769.34;;;8.20;100.00
12801;BME280;6464;42.494;27.470;2023-04-05T06:52:07;99650.75;;;6.86;100.00
12801;BME280;6464;42.494;27.470;2023-04-05T06:57:29;99668.97;;;6.48;100.00
12801;BME280;6464;42.494;27.470;2023-04-05T07:00:09;99832.38;;;7.81;100.00
12801;BME280;6464;42.494;27.470;2023-04-05T07:02:39;99861.88;;;7.92;100.00
12801;BME280;6464;42.494;27.470;2023-04-05T07:18:52;99816.97;;;8.43;100.00
12801;BME280;6464;42.494;27.470;2023-04-05T07:21:30;99863.19;;;9.22;100.00
12801;BME280;6464;42.494;27.470;2023-04-05T07:24:05;99919.78;;;8.67;100.00
12801;BME280;6464;42.494;27.470;2023-04-05T07:26:43;99919.25;;;8.53;100.00
12801;BME280;6464;42.494;27.470;2023-04-05T07:29:14;99834.66;;;7.98;100.00
12801;BME280;6464;42.494;27.470;2023-04-05T08:33:16;99943.78;;;9.59;100.00
12801;BME280;6464;42.494;27.470;2023-04-05T08:36:24;100029.00;;;10.20;100.00
12801;BME280;6464;42.494;27.470;2023-04-05T08:39:01;99982.19;;;10.31;100.00
12801;BME280;6464;42.494;27.470;2023-04-05T08:41:49;99810.38;;;9.28;100.00
12801;BME280;6464;42.494;27.470;2023-04-05T08:44:31;100000.22;;;11.02;100.00
12801;BME280;6464;42.494;27.470;2023-04-05T08:47:05;99927.56;;;11.70;100.00
12801;BME280;6464;42.494;27.470;2023-04-05T08:49:41;100070.91;;;12.74;100.00
12801;BME280;6464;42.494;27.470;2023-04-05T08:52:11;99996.50;;;12.59;100.00
12801;BME280;6464;42.494;27.470;2023-04-05T08:54:38;100074.56;;;11.43;100.00
12801;BME280;6464;42.494;27.470;2023-04-05T08:57:08;100082.78;;;11.06;100.00
12801;BME280;6464;42.494;27.470;2023-04-05T08:59:37;100129.94;;;11.46;100.00
12801;BME280;6464;42.494;27.470;2023-04-05T09:02:13;100073.34;;;10.97;100.00
12801;BME280;6464;42.494;27.470;2023-04-05T09:04:47;100142.25;;;11.18;100.00
12801;BME280;6464;42.494;27.470;2023-04-05T09:07:21;100152.75;;;11.19;100.00
12801;BME280;6464;42.494;27.470;2023-04-05T09:09:55;100140.88;;;11.90;100.00
12801;BME280;6464;42.494;27.470;2023-04-05T09:12:27;100172.25;;;12.52;100.00
12801;BME280;6464;42.494;27.470;2023-04-05T09:14:56;100204.53;;;11.82;100.00
12801;BME280;6464;42.494;27.470;2023-04-05T09:17:27;100089.78;;;11.35;100.00
12801;BME280;6464;42.494;27.470;2023-04-05T09:20:02;100183.47;;;11.51;100.00
12801;BME280;6464;42.494;27.470;2023-04-05T09:22:30;99994.69;;;10.54;100.00
12801;BME280;6464;42.494;27.470;2023-04-05T10:05:34;100864.09;;;10.44;100.00
12801;BME280;6464;42.494;27.470;2023-04-05T10:08:25;100935.78;;;10.68;100.00
12801;BME280;6464;42.494;27.470;2023-04-05T10:11:32;101020.69;;;10.29;100.00
12801;BME280;6464;42.494;27.470;2023-04-05T10:22:31;101221.38;;;13.06;100.00
12801;BME280;6464;42.494;27.470;2023-04-05T10:36:40;101181.03;;;12.47;100.00
12801;BME280;6464;42.494;27.470;2023-04-05T10:39:15;101147.28;;;11.61;100.00
12801;BME280;6464;42.494;27.470;2023-04-05T10:45:08;101299.16;;;11.94;100.00
12801;BME280;6464;42.494;27.470;2023-04-05T10:48:36;101099.31;;;11.87;100.00
12801;BME280;6464;42.494;27.470;2023-04-05T10:51:15;101224.59;;;13.19;100.00
12801;BME280;6464;42.494;27.470;2023-04-05T10:53:55;101223.19;;;12.57;100.00
12801;BME280;6464;42.494;27.470;2023-04-05T10:56:46;101126.69;;;11.79;100.00
12801;BME280;6464;42.494;27.470;2023-04-05T10:59:19;101339.28;;;12.76;100.00
12801;BME280;6464;42.494;27.470;2023-04-05T11:04:37;101087.94;;;10.66;100.00
12801;BME280;6464;42.494;27.470;2023-04-05T11:07:12;101168.84;;;11.30;100.00
12801;BME280;6464;42.494;27.470;2023-04-05T11:09:52;101087.84;;;10.73;100.00
12801;BME280;6464;42.494;27.470;2023-04-05T11:15:37;101249.50;;;12.65;100.00
12801;BME280;6464;42.494;27.470;2023-04-05T11:24:07;101081.41;;;10.93;100.00
12801;BME280;6464;42.494;27.470;2023-04-05T14:18:01;99867.81;;;9.76;100.00
12801;BME280;6464;42.494;27.470;2023-04-05T14:20:43;99761.88;;;9.07;100.00
12801;BME280;6464;42.494;27.470;2023-04-05T14:23:14;99855.63;;;10.03;100.00
12801;BME280;6464;42.494;27.470;2023-04-05T14:54:08;99790.31;;;8.93;100.00
12801;BME280;6464;42.494;27.470;2023-04-05T14:56:38;99846.72;;;9.46;100.00
12801;BME280;6464;42.494;27.470;2023-04-05T14:59:07;99948.97;;;9.62;100.00
12801;BME280;6464;42.494;27.470;2023-04-05T15:01:49;99923.88;;;9.48;100.00
12801;BME280;6464;42.494;27.470;2023-04-05T15:04:26;99954.22;;;9.62;100.00
12801;BME280;6464;42.494;27.470;2023-04-05T15:06:58;99685.69;;;8.40;100.00
12801;BME280;6464;42.494;27.470;2023-04-05T15:09:28;99901.63;;;9.60;100.00
12801;BME280;6464;42.494;27.470;2023-04-05T15:11:57;99899.03;;;9.59;100.00
12801;BME280;6464;42.494;27.470;2023-04-05T15:14:26;99828.66;;;9.01;100.00
12801;BME280;6464;42.494;27.470;2023-04-05T15:17:10;99744.06;;;8.16;100.00
12801;BME280;6464;42.494;27.470;2023-04-05T15:19:57;99892.97;;;9.22;100.00
12801;BME280;6464;42.494;27.470;2023-04-05T15:22:42;99893.44;;;9.04;100.00
12801;BME280;6464;42.494;27.470;2023-04-05T15:25:18;99792.06;;;8.21;100.00
12801;BME280;6464;42.494;27.470;2023-04-05T15:38:25;99987.41;;;9.35;100.00
12801;BME280;6464;42.494;27.470;2023-04-05T15:41:17;99824.31;;;8.65;100.00
12801;BME280;6464;42.494;27.470;2023-04-05T15:44:05;99879.19;;;8.80;100.00
12801;BME280;6464;42.494;27.470;2023-04-05T16:05:04;99727.69;;;8.05;100.00
12801;BME280;6464;42.494;27.470;2023-04-05T16:07:40;99815.09;;;8.48;100.00
12801;BME280;6464;42.494;27.470;2023-04-05T16:10:23;99840.72;;;8.76;100.00
12801;BME280;6464;42.494;27.470;2023-04-05T16:13:10;99733.06;;;8.37;100.00
12801;BME280;6464;42.494;27.470;2023-04-05T16:15:51;99917.22;;;9.68;100.00
12801;BME280;6464;42.494;27.470;2023-04-05T16:18:21;99929.28;;;9.75;100.00
12801;BME280;6464;42.494;27.470;2023-04-05T16:52:10;99894.13;;;8.39;100.00
12801;BME280;6464;42.494;27.470;2023-04-05T16:54:42;99793.50;;;7.98;100.00
12801;BME280;6464;42.494;27.470;2023-04-05T16:57:10;99815.91;;;8.13;100.00
12801;BME280;6464;42.494;27.470;2023-04-05T16:59:41;99862.13;;;8.22;100.00
12801;BME280;6464;42.494;27.470;2023-04-05T17:02:21;99778.34;;;7.71;100.00
12801;BME280;6464;42.494;27.470;2023-04-05T17:04:56;99700.44;;;7.34;100.00
12801;BME280;6464;42.494;27.470;2023-04-05T17:07:47;99817.84;;;7.65;100.00
12801;BME280;6464;42.494;27.470;2023-04-05T17:10:28;99864.16;;;8.09;100.00
12801;BME280;6464;42.494;27.470;2023-04-05T17:13:22;99810.94;;;7.61;100.00
12801;BME280;6464;42.494;27.470;2023-04-05T17:16:06;99816.47;;;7.89;100.00
12801;BME280;6464;42.494;27.470;2023-04-05T17:19:15;99650.75;;;6.86;100.00
12801;BME280;6464;42.494;27.470;2023-04-05T17:21:50;99801.22;;;8.05;100.00
12801;BME280;6464;42.494;27.470;2023-04-05T17:24:58;99815.16;;;8.08;100.00
12801;BME280;6464;42.494;27.470;2023-04-05T17:27:38;99782.19;;;8.32;100.00
12801;BME280;6464;42.494;27.470;2023-04-05T17:30:14;99596.38;;;6.96;100.00
12801;BME280;6464;42.494;27.470;2023-04-05T17:33:19;99710.59;;;8.24;100.00
12801;BME280;6464;42.494;27.470;2023-04-05T17:35:53;99575.81;;;7.18;100.00
12801;BME280;6464;42.494;27.470;2023-04-05T17:38:38;99685.66;;;8.06;100.00
12801;BME280;6464;42.494;27.470;2023-04-05T17:41:39;99677.13;;;7.98;100.00
12801;BME280;6464;42.494;27.470;2023-04-05T17:49:53;99441.47;;;6.71;100.00
12801;BME280;6464;42.494;27.470;2023-04-05T17:52:42;99451.13;;;6.69;100.00
12801;BME280;6464;42.494;27.470;2023-04-05T18:03:21;99369.53;;;6.84;100.00
12801;BME280;6464;42.494;27.470;2023-04-05T18:05:55;99508.50;;;7.87;100.00
12801;BME280;6464;42.494;27.470;2023-04-05T18:08:27;99326.56;;;6.56;100.00
12801;BME280;6464;42.494;27.470;2023-04-05T18:10:59;99405.66;;;7.41;100.00
12801;BME280;6464;42.494;27.470;2023-04-05T18:13:29;99385.88;;;7.28;100.00
12801;BME280;6464;42.494;27.470;2023-04-05T18:15:58;99419.50;;;7.79;100.00
12801;BME280;6464;42.494;27.470;2023-04-05T18:18:31;99394.97;;;7.80;100.00
12801;BME280;6464;42.494;27.470;2023-04-05T18:21:02;99248.00;;;7.21;100.00
12801;BME280;6464;42.494;27.470;2023-04-05T18:23:35;99213.69;;;7.29;100.00
12801;BME280;6464;42.494;27.470;2023-04-05T19:04:55;98844.28;;;7.69;100.00
12801;BME280;6464;42.494;27.470;2023-04-05T19:07:28;98622.81;;;6.61;100.00
12801;BME280;6464;42.494;27.470;2023-04-05T19:09:58;98793.53;;;7.70;100.00
12801;BME280;6464;42.494;27.470;2023-04-05T19:12:30;98765.91;;;7.84;100.00
12801;BME280;6464;42.494;27.470;2023-04-05T19:15:01;98693.69;;;7.73;100.00
12801;BME280;6464;42.494;27.470;2023-04-05T19:17:30;98609.91;;;7.03;100.00
12801;BME280;6464;42.494;27.470;2023-04-05T19:20:21;98561.09;;;6.77;100.00
12801;BME280;6464;42.494;27.470;2023-04-05T19:22:49;98717.38;;;7.72;100.00
12801;BME280;6464;42.494;27.470;2023-04-05T19:25:25;98527.25;;;6.48;100.00
12801;BME280;6464;42.494;27.470;2023-04-05T19:27:57;98501.22;;;6.68;100.00
12801;BME280;6464;42.494;27.470;2023-04-05T19:30:41;98503.88;;;7.12;100.00
12801;BME280;6464;42.494;27.470;2023-04-05T19:33:16;98555.84;;;7.87;100.00
12801;BME280;6464;42.494;27.470;2023-04-05T19:35:50;98341.09;;;6.55;100.00
12801;BME280;6464;42.494;27.470;2023-04-05T19:38:23;98404.78;;;7.20;100.00
12801;BME280;6464;42.494;27.470;2023-04-05T19:41:02;98380.25;;;7.01;100.00
12801;BME280;6464;42.494;27.470;2023-04-05T19:43:39;98388.41;;;7.15;100.00
12801;BME280;6464;42.494;27.470;2023-04-05T19:46:17;98493.81;;;7.43;100.00
12801;BME280;6464;42.494;27.470;2023-04-05T19:49:06;98421.25;;;7.44;100.00
12801;BME280;6464;42.494;27.470;2023-04-05T19:51:41;98254.84;;;6.73;100.00
12801;BME280;6464;42.494;27.470;2023-04-05T19:54:15;98325.59;;;7.53;100.00
12801;BME280;6464;42.494;27.470;2023-04-05T19:57:06;98301.91;;;6.74;100.00
12801;BME280;6464;42.494;27.470;2023-04-05T19:59:58;98463.75;;;7.93;100.00
12801;BME280;6464;42.494;27.470;2023-04-05T20:02:34;98434.06;;;7.52;100.00
12801;BME280;6464;42.494;27.470;2023-04-05T20:05:56;98373.59;;;6.50;100.00
12801;BME280;6464;42.494;27.470;2023-04-05T20:08:45;98416.34;;;6.50;100.00
12801;BME280;6464;42.494;27.470;2023-04-05T20:11:15;98545.97;;;7.07;100.00
12801;BME280;6464;42.494;27.470;2023-04-05T20:13:52;98568.78;;;7.27;100.00
12801;BME280;6464;42.494;27.470;2023-04-05T20:16:27;98662.03;;;7.56;100.00
12801;BME280;6464;42.494;27.470;2023-04-05T20:19:00;98496.41;;;6.79;100.00
12801;BME280;6464;42.494;27.470;2023-04-05T20:21:28;98531.91;;;6.86;100.00
12801;BME280;6464;42.494;27.470;2023-04-05T20:30:23;98831.00;;;7.51;100.00
12801;BME280;6464;42.494;27.470;2023-04-05T20:32:53;98787.47;;;6.97;100.00
12801;BME280;6464;42.494;27.470;2023-04-05T20:35:34;98812.06;;;6.66;100.00
12801;BME280;6464;42.494;27.470;2023-04-05T20:38:27;98998.09;;;7.72;100.00
12801;BME280;6464;42.494;27.470;2023-04-05T20:40:58;98844.69;;;7.09;100.00
12801;BME280;6464;42.494;27.470;2023-04-05T20:43:33;98865.28;;;6.68;100.00
12801;BME280;6464;42.494;27.470;2023-04-05T20:46:07;98979.06;;;7.14;100.00
12801;BME280;6464;42.494;27.470;2023-04-05T20:48:42;98940.41;;;6.66;100.00
12801;BME280;6464;42.494;27.470;2023-04-05T20:51:13;99128.22;;;7.51;100.00
12801;BME280;6464;42.494;27.470;2023-04-05T20:53:45;99061.75;;;6.66;100.00
12801;BME280;6464;42.494;27.470;2023-04-05T20:56:40;99040.09;;;6.89;100.00
12801;BME280;6464;42.494;27.470;2023-04-05T20:59:25;98989.44;;;6.31;100.00
12801;BME280;6464;42.494;27.470;2023-04-05T21:16:27;99294.25;;;7.84;100.00
12801;BME280;6464;42.494;27.470;2023-04-05T21:19:01;99232.78;;;7.03;100.00
12801;BME280;6464;42.494;27.470;2023-04-05T21:21:35;99339.63;;;7.88;100.00
12801;BME280;6464;42.494;27.470;2023-04-05T21:24:07;99272.59;;;7.17;100.00
12801;BME280;6464;42.494;27.470;2023-04-05T21:26:35;99291.91;;;7.44;100.00
12801;BME280;6464;42.494;27.470;2023-04-05T21:29:03;99328.56;;;7.16;100.00
12801;BME280;6464;42.494;27.470;2023-04-05T21:31:34;99466.31;;;7.94;100.00
12801;BME280;6464;42.494;27.470;2023-04-05T21:34:03;99446.34;;;7.56;100.00
12801;BME280;6464;42.494;27.470;2023-04-05T21:36:36;99508.38;;;7.93;100.00
12801;BME280;6464;42.494;27.470;2023-04-05T21:39:08;99339.97;;;6.79;100.00
12801;BME280;6464;42.494;27.470;2023-04-05T21:41:59;99524.91;;;7.95;100.00
12801;BME280;6464;42.494;27.470;2023-04-05T21:44:28;99496.78;;;8.00;100.00
12801;BME280;6464;42.494;27.470;2023-04-05T21:47:01;99406.41;;;7.12;100.00
12801;BME280;6464;42.494;27.470;2023-04-05T21:49:32;99484.69;;;7.94;100.00
12801;BME280;6464;42.494;27.470;2023-04-05T21:52:01;99237.34;;;6.62;100.00
12801;BME280;6464;42.494;27.470;2023-04-05T21:54:28;99446.53;;;7.81;100.00
12801;BME280;6464;42.494;27.470;2023-04-05T21:57:08;99336.84;;;7.32;100.00
12801;BME280;6464;42.494;27.470;2023-04-05T21:59:44;99354.63;;;7.83;100.00
12801;BME280;6464;42.494;27.470;2023-04-05T22:02:49;99208.94;;;6.48;100.00
12801;BME280;6464;42.494;27.470;2023-04-05T22:05:18;99257.34;;;6.99;100.00
12801;BME280;6464;42.494;27.470;2023-04-05T22:07:46;99440.50;;;7.79;100.00
12801;BME280;6464;42.494;27.470;2023-04-05T22:10:16;99247.38;;;6.80;100.00
12801;BME280;6464;42.494;27.470;2023-04-05T22:12:45;99402.72;;;7.85;100.00
12801;BME280;6464;42.494;27.470;2023-04-05T22:15:20;99229.16;;;6.76;100.00
12801;BME280;6464;42.494;27.470;2023-04-05T22:18:06;99376.31;;;7.60;100.00
12801;BME280;6464;42.494;27.470;2023-04-05T22:20:35;99405.91;;;7.32;100.00
12801;BME280;6464;42.494;27.470;2023-04-05T22:23:07;99356.28;;;6.55;100.00
12801;BME280;6464;42.494;27.470;2023-04-05T22:25:36;99464.13;;;7.11;100.00
12801;BME280;6464;42.494;27.470;2023-04-05T22:28:15;99571.31;;;7.94;100.00
12801;BME280;6464;42.494;27.470;2023-04-05T22:30:53;99565.59;;;8.13;100.00
12801;BME280;6464;42.494;27.470;2023-04-05T22:33:28;99585.13;;;8.03;100.00
12801;BME280;6464;42.494;27.470;2023-04-05T22:36:06;99542.75;;;7.48;100.00
12801;BME280;6464;42.494;27.470;2023-04-05T22:38:36;99560.53;;;7.71;100.00
12801;BME280;6464;42.494;27.470;2023-04-05T22:41:09;99492.06;;;7.10;100.00
12801;BME280;6464;42.494;27.470;2023-04-05T22:43:38;99536.47;;;7.54;100.00
12801;BME280;6464;42.494;27.470;2023-04-05T22:46:15;99642.25;;;7.93;100.00
12801;BME280;6464;42.494;27.470;2023-04-05T22:49:02;99510.09;;;7.24;100.00
12801;BME280;6464;42.494;27.470;2023-04-05T22:51:34;99592.22;;;7.97;100.00
12801;BME280;6464;42.494;27.470;2023-04-05T22:54:04;99487.69;;;7.46;100.00
12801;BME280;6464;42.494;27.470;2023-04-05T22:56:39;99641.22;;;7.98;100.00
12801;BME280;6464;42.494;27.470;2023-04-05T22:59:23;99635.00;;;8.01;100.00
12801;BME280;6464;42.494;27.470;2023-04-05T23:02:01;99452.16;;;6.62;100.00
12801;BME280;6464;42.494;27.470;2023-04-05T23:04:43;99652.16;;;7.80;100.00
12801;BME280;6464;42.494;27.470;2023-04-05T23:07:11;99600.56;;;7.43;100.00
12801;BME280;6464;42.494;27.470;2023-04-05T23:09:49;99661.88;;;7.77;100.00
12801;BME280;6464;42.494;27.470;2023-04-05T23:12:18;99570.03;;;7.41;100.00
12801;BME280;6464;42.494;27.470;2023-04-05T23:14:51;99495.31;;;6.84;100.00
12801;BME280;6464;42.494;27.470;2023-04-05T23:17:29;99583.81;;;7.49;100.00
12801;BME280;6464;42.494;27.470;2023-04-05T23:20:27;99415.25;;;6.71;100.00
12801;BME280;6464;42.494;27.470;2023-04-05T23:22:58;99579.25;;;7.93;100.00
12801;BME280;6464;42.494;27.470;2023-04-05T23:25:29;99538.22;;;7.55;100.00
12801;BME280;6464;42.494;27.470;2023-04-05T23:28:07;99603.22;;;7.78;100.00
12801;BME280;6464;42.494;27.470;2023-04-05T23:30:41;99400.31;;;6.39;100.00
12801;BME280;6464;42.494;27.470;2023-04-05T23:33:11;99607.09;;;7.63;100.00
12801;BME280;6464;42.494;27.470;2023-04-05T23:45:43;99449.75;;;6.90;100.00
12801;BME280;6464;42.494;27.470;2023-04-05T23:48:24;99398.31;;;6.86;100.00
12801;BME280;6464;42.494;27.470;2023-04-05T23:50:53;99515.41;;;7.22;100.00
12801;BME280;6464;42.494;27.470;2023-04-05T23:53:21;99444.28;;;6.63;100.00
12801;BME280;6464;42.494;27.470;2023-04-05T23:55:49;99543.34;;;7.24;100.00
12801;BME280;6464;42.494;27.470;2023-04-05T23:58:20;99518.66;;;6.95;100.00
